createdAt,value
2022-12-05T00:01:00.603Z,10.43
2022-12-05T00:03:28.216Z,8.45
2022-12-05T00:05:55.553Z,12.33
2022-12-05T00:08:22.858Z,10.07
2022-12-05T00:10:50.448Z,8.50
2022-12-05T00:13:17.922Z,9.80
2022-12-05T00:15:45.264Z,11.27
2022-12-05T00:18:12.881Z,8.73
2022-12-05T00:20:47.166Z,9.30
2022-12-05T00:23:14.842Z,10.03
2022-12-05T00:25:42.208Z,10.80
2022-12-05T00:28:09.563Z,11.75
2022-12-05T00:30:40.501Z,8.57
2022-12-05T00:33:07.852Z,9.77
2022-12-05T00:35:35.322Z,8.43
2022-12-05T00:38:02.895Z,9.47
2022-12-05T00:40:30.203Z,9.30
2022-12-05T00:42:57.561Z,9.50
2022-12-05T00:45:25.171Z,9.87
2022-12-05T00:47:52.479Z,11.02
2022-12-05T00:50:19.977Z,9.48
2022-12-05T00:52:47.562Z,8.75
2022-12-05T00:55:14.869Z,9.27
2022-12-05T00:57:42.300Z,11.25
2022-12-05T01:00:10.230Z,9.52
2022-12-05T01:02:37.841Z,9.37
2022-12-05T01:05:05.705Z,10.33
2022-12-05T01:07:33.285Z,9.93
2022-12-05T01:10:00.636Z,11.10
2022-12-05T01:12:28.211Z,8.00
2022-12-05T01:14:55.786Z,9.67
2022-12-05T01:17:23.069Z,12.70
2022-12-05T01:19:50.385Z,10.97
2022-12-05T01:22:18.158Z,11.37
2022-12-05T01:24:46.099Z,10.13
2022-12-05T01:27:13.433Z,9.37
2022-12-05T01:29:41.012Z,13.40
2022-12-05T01:32:08.363Z,9.13
2022-12-05T01:34:35.764Z,10.13
2022-12-05T01:37:03.492Z,10.77
2022-12-05T01:39:30.793Z,9.07
2022-12-05T01:41:58.128Z,11.70
2022-12-05T01:44:25.559Z,8.95
2022-12-05T01:46:52.904Z,10.10
2022-12-05T01:49:32.989Z,9.83
2022-12-05T01:52:14.139Z,13.57
2022-12-05T01:54:41.552Z,11.67
2022-12-05T01:57:10.845Z,10.67
2022-12-05T01:59:44.341Z,9.47
2022-12-05T02:02:11.968Z,10.53
2022-12-05T02:04:49.326Z,9.03
2022-12-05T02:07:16.649Z,11.37
2022-12-05T02:09:44.227Z,11.00
2022-12-05T02:12:11.641Z,9.93
2022-12-05T02:14:52.373Z,10.40
2022-12-05T02:17:32.673Z,10.90
2022-12-05T02:20:12.030Z,10.40
2022-12-05T02:22:58.628Z,10.03
2022-12-05T02:25:56.900Z,11.88
2022-12-05T02:28:32.328Z,10.07
2022-12-05T02:31:04.788Z,11.43
2022-12-05T02:33:44.025Z,10.48
2022-12-05T02:36:39.382Z,10.57
2022-12-05T02:39:14.289Z,8.55
2022-12-05T02:41:47.098Z,11.10
2022-12-05T02:44:22.751Z,10.00
2022-12-05T02:46:50.115Z,10.50
2022-12-05T02:49:20.909Z,10.53
2022-12-05T02:51:50.310Z,9.90
2022-12-05T02:54:24.174Z,11.37
2022-12-05T02:56:51.615Z,11.23
2022-12-05T02:59:23.284Z,10.37
2022-12-05T03:01:51.216Z,12.40
2022-12-05T03:04:21.036Z,11.87
2022-12-05T03:06:58.094Z,10.70
2022-12-05T03:09:30.468Z,13.07
2022-12-05T03:12:21.195Z,11.63
2022-12-05T03:15:06.758Z,10.70
2022-12-05T03:17:37.254Z,10.57
2022-12-05T03:20:28.375Z,10.40
2022-12-05T03:23:19.728Z,11.67
2022-12-05T03:25:50.169Z,9.67
2022-12-05T03:28:25.718Z,11.13
2022-12-05T03:30:53.701Z,11.60
2022-12-05T03:33:23.664Z,13.20
2022-12-05T03:36:03.243Z,14.77
2022-12-05T03:38:35.987Z,10.60
2022-12-05T03:41:25.832Z,11.07
2022-12-05T03:43:57.551Z,10.80
2022-12-05T03:46:30.357Z,13.63
2022-12-05T03:49:00.924Z,12.63
2022-12-05T03:51:33.368Z,12.50
2022-12-05T03:54:10.957Z,12.97
2022-12-05T03:56:42.005Z,12.20
2022-12-05T03:59:19.204Z,12.53
2022-12-05T04:01:46.998Z,11.27
2022-12-05T04:04:21.034Z,13.83
2022-12-05T04:06:49.088Z,16.80
2022-12-05T04:09:20.557Z,12.13
2022-12-05T04:11:53.701Z,14.73
2022-12-05T04:14:27.077Z,14.23
2022-12-05T04:17:09.385Z,15.60
2022-12-05T04:20:06.403Z,13.70
2022-12-05T04:22:33.931Z,14.40
2022-12-05T04:25:21.174Z,11.53
2022-12-05T04:27:57.068Z,15.93
2022-12-05T04:30:30.604Z,12.98
2022-12-05T04:33:00.226Z,17.20
2022-12-05T04:35:34.076Z,15.27
2022-12-05T04:38:15.754Z,11.67
2022-12-05T04:41:04.273Z,15.10
2022-12-05T04:43:33.807Z,15.00
2022-12-05T04:46:01.457Z,14.00
2022-12-05T04:48:28.849Z,14.07
2022-12-05T04:50:56.293Z,12.43
2022-12-05T04:53:25.103Z,16.50
2022-12-05T04:55:52.656Z,13.80
2022-12-05T04:58:24.246Z,15.33
2022-12-05T05:01:11.534Z,14.23
2022-12-05T05:04:09.731Z,14.10
2022-12-05T05:06:38.360Z,15.20
2022-12-05T05:09:05.743Z,13.90
2022-12-05T05:11:34.113Z,15.07
2022-12-05T05:14:01.913Z,16.70
2022-12-05T05:16:34.212Z,11.47
2022-12-05T05:19:01.924Z,13.47
2022-12-05T05:21:30.728Z,14.23
2022-12-05T05:23:58.267Z,11.90
2022-12-05T05:26:26.510Z,14.37
2022-12-05T05:28:53.823Z,12.87
2022-12-05T05:31:21.547Z,12.00
2022-12-05T05:33:50.285Z,14.83
2022-12-05T05:36:18.002Z,12.97
2022-12-05T05:38:47.342Z,14.80
2022-12-05T05:41:28.611Z,11.23
2022-12-05T05:43:56.324Z,13.40
2022-12-05T05:46:26.185Z,15.70
2022-12-05T05:48:53.659Z,15.60
2022-12-05T05:51:21.276Z,12.97
2022-12-05T05:53:48.898Z,13.93
2022-12-05T05:56:21.538Z,14.27
2022-12-05T05:58:55.531Z,11.63
2022-12-05T06:01:23.004Z,13.00
2022-12-05T06:03:51.010Z,14.30
2022-12-05T06:06:18.621Z,12.93
2022-12-05T06:08:46.066Z,13.73
2022-12-05T06:11:18.853Z,16.97
2022-12-05T06:13:49.051Z,12.23
2022-12-05T06:16:17.638Z,13.63
2022-12-05T06:18:45.055Z,12.90
2022-12-05T06:21:16.199Z,14.37
2022-12-05T06:23:44.289Z,13.23
2022-12-05T06:26:13.197Z,15.63
2022-12-05T06:28:40.627Z,13.37
2022-12-05T06:31:10.002Z,15.47
2022-12-05T06:33:37.409Z,19.43
2022-12-05T06:36:10.837Z,14.40
2022-12-05T06:38:41.968Z,13.73
2022-12-05T06:41:14.919Z,14.00
2022-12-05T06:43:42.703Z,14.03
2022-12-05T06:46:11.840Z,13.97
2022-12-05T06:48:39.292Z,13.20
2022-12-05T06:51:09.336Z,17.33
2022-12-05T06:53:36.813Z,11.83
2022-12-05T06:56:05.604Z,12.80
2022-12-05T06:58:33.176Z,14.70
2022-12-05T07:01:19.271Z,14.07
2022-12-05T07:06:16.698Z,14.60
2022-12-05T07:08:44.849Z,16.77
2022-12-05T07:11:12.538Z,13.57
2022-12-05T07:13:39.897Z,15.40
2022-12-05T07:16:07.895Z,10.53
2022-12-05T07:18:36.035Z,12.07
2022-12-05T07:21:13.433Z,13.30
2022-12-05T07:23:42.346Z,17.23
2022-12-05T07:26:11.276Z,12.13
2022-12-05T07:28:38.617Z,12.87
2022-12-05T07:31:10.766Z,12.73
2022-12-05T07:33:38.379Z,13.73
2022-12-05T07:36:11.353Z,11.13
2022-12-05T07:38:39.340Z,12.80
2022-12-05T07:41:12.800Z,12.43
2022-12-05T07:43:41.502Z,13.47
2022-12-05T07:46:11.309Z,13.57
2022-12-05T07:48:39.367Z,14.90
2022-12-05T07:51:08.621Z,13.37
2022-12-05T07:53:37.820Z,12.57
2022-12-05T07:56:06.672Z,13.10
2022-12-05T07:58:34.943Z,13.57
2022-12-05T08:01:10.744Z,13.23
2022-12-05T08:03:38.528Z,12.07
2022-12-05T08:06:07.495Z,12.17
2022-12-05T08:08:34.835Z,11.87
2022-12-05T08:11:12.578Z,13.13
2022-12-05T08:13:39.994Z,13.40
2022-12-05T08:16:10.096Z,13.10
2022-12-05T08:18:37.614Z,10.90
2022-12-05T08:21:06.768Z,14.77
2022-12-05T08:23:34.702Z,15.55
2022-12-05T08:26:06.198Z,14.90
2022-12-05T08:28:33.913Z,12.73
2022-12-05T08:31:08.327Z,13.00
2022-12-05T08:33:35.968Z,11.67
2022-12-05T08:36:10.334Z,12.40
2022-12-05T08:38:37.984Z,14.30
2022-12-05T08:41:06.664Z,15.10
2022-12-05T08:43:34.047Z,13.73
2022-12-05T08:46:01.808Z,12.23
2022-12-05T08:48:29.919Z,12.33
2022-12-05T08:50:57.434Z,12.33
2022-12-05T08:53:25.566Z,12.57
2022-12-05T08:55:52.886Z,12.43
2022-12-05T08:58:20.221Z,12.27
2022-12-05T09:00:47.860Z,9.97
2022-12-05T09:03:15.195Z,9.53
2022-12-05T09:05:42.648Z,14.13
2022-12-05T09:08:10.342Z,11.68
2022-12-05T09:10:38.288Z,12.65
2022-12-05T09:13:05.671Z,12.52
2022-12-05T09:15:33.383Z,14.75
2022-12-05T09:18:00.767Z,12.63
2022-12-05T09:20:28.135Z,13.23
2022-12-05T09:22:55.748Z,12.68
2022-12-05T09:25:23.060Z,12.13
2022-12-05T09:27:50.384Z,12.57
2022-12-05T09:30:18.606Z,14.23
2022-12-05T09:32:46.403Z,10.18
2022-12-05T09:35:14.083Z,12.57
2022-12-05T09:37:41.908Z,12.45
2022-12-05T09:40:16.192Z,11.15
2022-12-05T09:42:56.855Z,14.13
2022-12-05T09:45:26.607Z,16.45
2022-12-05T09:48:11.479Z,11.18
2022-12-05T09:50:54.788Z,11.77
2022-12-05T09:53:37.280Z,13.73
2022-12-05T09:56:06.401Z,14.07
2022-12-05T09:58:43.781Z,16.58
2022-12-05T10:01:21.848Z,13.30
2022-12-05T10:04:01.792Z,12.90
2022-12-05T10:06:32.340Z,12.02
2022-12-05T10:09:30.948Z,12.98
2022-12-05T10:12:17.625Z,13.13
2022-12-05T10:15:01.864Z,13.82
2022-12-05T10:17:33.730Z,14.25
2022-12-05T10:20:14.054Z,15.20
2022-12-05T10:22:48.202Z,14.30
2022-12-05T10:25:18.683Z,12.15
2022-12-05T10:27:50.019Z,16.35
2022-12-05T10:30:22.193Z,13.50
2022-12-05T10:33:09.175Z,17.47
2022-12-05T10:35:38.301Z,16.73
2022-12-05T10:38:07.167Z,17.30
2022-12-05T10:40:39.627Z,17.90
2022-12-05T10:43:08.801Z,16.87
2022-12-05T10:45:40.411Z,16.42
2022-12-05T10:48:09.757Z,17.00
2022-12-05T10:50:37.542Z,15.95
2022-12-05T10:53:05.741Z,16.65
2022-12-05T10:55:41.239Z,18.52
2022-12-05T10:58:17.255Z,16.40
2022-12-05T11:00:47.820Z,17.30
2022-12-05T11:03:33.823Z,15.55
2022-12-05T11:06:02.908Z,19.95
2022-12-05T11:09:02.376Z,21.85
2022-12-05T11:11:21.770Z,18.95
2022-12-05T11:13:57.479Z,18.33
2022-12-05T11:16:36.186Z,19.08
2022-12-05T11:19:27.204Z,19.12
2022-12-05T11:21:55.178Z,22.00
2022-12-05T11:24:31.851Z,19.27
2022-12-05T11:27:15.953Z,21.05
2022-12-05T11:29:44.830Z,18.45
2022-12-05T11:32:20.651Z,19.30
2022-12-05T11:35:05.666Z,18.75
2022-12-05T11:37:58.056Z,18.20
2022-12-05T11:41:07.612Z,17.73
2022-12-05T11:43:53.430Z,18.77
2022-12-05T11:46:37.637Z,17.42
2022-12-05T11:49:27.381Z,18.60
2022-12-05T11:51:58.873Z,21.87
2022-12-05T11:55:04.962Z,17.48
2022-12-05T11:57:50.420Z,21.20
2022-12-05T12:00:23.721Z,21.65
2022-12-05T12:03:14.660Z,20.45
2022-12-05T12:05:57.413Z,18.58
2022-12-05T12:08:27.571Z,21.95
2022-12-05T12:11:19.522Z,23.27
2022-12-05T12:14:07.634Z,22.27
2022-12-05T12:16:50.284Z,19.52
2022-12-05T12:19:21.895Z,19.25
2022-12-05T12:22:11.312Z,20.73
2022-12-05T12:25:05.229Z,20.33
2022-12-05T12:28:17.563Z,25.60
2022-12-05T12:31:12.332Z,20.55
2022-12-05T12:33:51.174Z,18.70
2022-12-05T12:36:46.473Z,18.40
2022-12-05T12:39:41.948Z,22.65
2022-12-05T12:42:26.429Z,16.90
2022-12-05T12:45:21.142Z,16.48
2022-12-05T12:48:08.057Z,18.10
2022-12-05T12:50:43.211Z,20.23
2022-12-05T12:53:30.197Z,19.45
2022-12-05T12:56:04.468Z,19.33
2022-12-05T12:58:50.631Z,17.37
2022-12-05T13:01:33.220Z,22.35
2022-12-05T13:04:12.483Z,19.73
2022-12-05T13:06:57.850Z,18.27
2022-12-05T13:09:53.740Z,17.70
2022-12-05T13:12:27.381Z,20.73
2022-12-05T13:15:18.890Z,16.87
2022-12-05T13:17:47.288Z,16.48
2022-12-05T13:20:20.669Z,17.58
2022-12-05T13:22:49.278Z,21.67
2022-12-05T13:25:17.712Z,17.55
2022-12-05T13:27:59.020Z,26.15
2022-12-05T13:30:31.063Z,21.20
2022-12-05T13:32:59.821Z,20.40
2022-12-05T13:35:50.668Z,17.48
2022-12-05T13:38:49.865Z,18.20
2022-12-05T13:41:36.169Z,29.77
2022-12-05T13:44:06.796Z,22.52
2022-12-05T13:46:35.721Z,20.73
2022-12-05T13:49:17.214Z,17.52
2022-12-05T13:51:45.374Z,22.10
2022-12-05T13:54:18.343Z,22.45
2022-12-05T13:56:55.976Z,19.67
2022-12-05T14:00:03.231Z,21.33
2022-12-05T14:02:42.385Z,22.75
2022-12-05T14:05:19.136Z,22.17
2022-12-05T14:07:53.198Z,23.15
2022-12-05T14:10:21.910Z,23.93
2022-12-05T14:12:51.079Z,23.80
2022-12-05T14:15:32.854Z,27.27
2022-12-05T14:18:10.813Z,26.52
2022-12-05T14:20:47.559Z,26.00
2022-12-05T14:23:52.066Z,28.77
2022-12-05T14:26:34.846Z,26.37
2022-12-05T14:29:31.402Z,24.95
2022-12-05T14:32:18.344Z,25.50
2022-12-05T14:34:56.324Z,26.73
2022-12-05T14:37:28.965Z,27.53
2022-12-05T14:40:00.843Z,25.40
2022-12-05T14:42:43.994Z,25.20
2022-12-05T14:45:29.246Z,24.97
2022-12-05T14:47:58.619Z,24.40
2022-12-05T14:50:40.087Z,23.35
2022-12-05T14:53:30.235Z,23.77
2022-12-05T14:56:02.200Z,23.00
2022-12-05T14:59:01.997Z,24.23
2022-12-05T15:01:48.830Z,26.77
2022-12-05T15:04:33.577Z,24.15
2022-12-05T15:07:04.215Z,21.73
2022-12-05T15:09:37.309Z,23.42
2022-12-05T15:12:10.354Z,26.30
2022-12-05T15:14:48.068Z,20.80
2022-12-05T15:17:18.562Z,21.62
2022-12-05T15:19:51.093Z,27.35
2022-12-05T15:22:20.019Z,24.73
2022-12-05T15:24:47.415Z,23.93
2022-12-05T15:27:16.711Z,22.53
2022-12-05T15:29:44.361Z,23.17
2022-12-05T15:32:11.534Z,25.50
2022-12-05T15:34:52.182Z,24.15
2022-12-05T15:37:27.275Z,22.98
2022-12-05T15:40:21.959Z,23.93
2022-12-05T15:42:56.267Z,22.60
2022-12-05T15:45:30.021Z,25.27
2022-12-05T15:48:11.450Z,23.15
2022-12-05T15:50:42.684Z,23.70
2022-12-05T15:53:17.129Z,21.37
2022-12-05T15:55:49.475Z,21.58
2022-12-05T15:58:31.581Z,20.08
2022-12-05T16:01:05.177Z,20.85
2022-12-05T16:03:44.914Z,24.40
2022-12-05T16:06:18.495Z,22.27
2022-12-05T16:08:46.551Z,23.58
2022-12-05T16:11:14.138Z,23.65
2022-12-05T16:13:52.110Z,25.65
2022-12-05T16:16:21.892Z,22.80
2022-12-05T16:18:57.070Z,25.05
2022-12-05T16:21:42.005Z,23.52
2022-12-05T16:24:20.033Z,21.08
2022-12-05T16:26:58.939Z,21.85
2022-12-05T16:29:28.336Z,22.20
2022-12-05T16:31:57.060Z,22.90
2022-12-05T16:34:24.635Z,21.58
2022-12-05T16:36:52.594Z,21.00
2022-12-05T16:39:20.271Z,21.45
2022-12-05T16:41:47.611Z,19.10
2022-12-05T16:44:27.000Z,20.77
2022-12-05T16:46:57.794Z,20.65
2022-12-05T16:49:31.153Z,21.20
2022-12-05T16:52:07.580Z,20.20
2022-12-05T16:54:35.184Z,19.73
2022-12-05T16:57:02.805Z,18.98
2022-12-05T16:59:37.590Z,15.55
2022-12-05T17:02:07.644Z,19.92
2022-12-05T17:04:35.233Z,18.07
2022-12-05T17:07:02.657Z,16.77
2022-12-05T17:09:30.270Z,17.08
2022-12-05T17:12:21.719Z,17.50
2022-12-05T17:14:49.537Z,16.58
2022-12-05T17:17:18.233Z,15.43
2022-12-05T17:19:45.602Z,19.00
2022-12-05T17:22:13.979Z,15.75
2022-12-05T17:24:41.593Z,18.53
2022-12-05T17:27:12.245Z,16.98
2022-12-05T17:29:39.855Z,14.20
2022-12-05T17:32:07.195Z,17.73
2022-12-05T17:34:34.547Z,14.00
2022-12-05T17:37:02.606Z,15.73
2022-12-05T17:39:29.952Z,17.95
2022-12-05T17:41:57.288Z,16.80
2022-12-05T17:44:25.127Z,15.93
2022-12-05T17:46:52.540Z,17.73
2022-12-05T17:49:20.215Z,18.40
2022-12-05T17:54:35.156Z,16.12
2022-12-05T17:57:02.888Z,15.38
2022-12-05T17:59:30.244Z,19.70
2022-12-05T18:01:57.587Z,17.77
2022-12-05T18:04:25.232Z,17.85
2022-12-05T18:06:52.702Z,15.63
2022-12-05T18:09:20.101Z,17.00
2022-12-05T18:11:47.713Z,18.02
2022-12-05T18:14:15.103Z,15.43
2022-12-05T18:16:43.150Z,17.77
2022-12-05T18:19:10.854Z,19.30
2022-12-05T18:21:38.185Z,19.62
2022-12-05T18:24:05.624Z,19.85
2022-12-05T18:26:33.358Z,16.58
2022-12-05T18:29:00.681Z,17.20
2022-12-05T18:31:28.059Z,18.80
2022-12-05T18:33:55.704Z,21.25
2022-12-05T18:36:23.037Z,16.35
2022-12-05T18:38:51.601Z,19.92
2022-12-05T18:41:19.484Z,19.40
2022-12-05T18:43:47.205Z,21.95
2022-12-05T18:46:14.590Z,16.65
2022-12-05T18:48:46.022Z,19.00
2022-12-05T18:51:15.362Z,17.50
2022-12-05T18:53:43.036Z,24.77
2022-12-05T18:56:22.094Z,16.60
2022-12-05T18:59:14.396Z,18.83
2022-12-05T19:01:42.167Z,21.33
2022-12-05T19:04:12.462Z,35.25
2022-12-05T19:06:41.452Z,21.23
2022-12-05T19:09:11.739Z,18.80
2022-12-05T19:11:47.324Z,17.17
2022-12-05T19:14:16.459Z,21.23
2022-12-05T19:16:44.190Z,20.17
2022-12-05T19:19:12.960Z,19.48
2022-12-05T19:21:40.534Z,18.02
2022-12-05T19:24:08.457Z,18.55
2022-12-05T19:26:36.509Z,19.30
2022-12-05T19:29:04.082Z,18.10
2022-12-05T19:31:31.867Z,22.30
2022-12-05T19:34:00.424Z,18.58
2022-12-05T19:36:31.821Z,20.25
2022-12-05T19:38:59.599Z,21.83
2022-12-05T19:41:28.952Z,22.62
2022-12-05T19:43:59.116Z,21.98
2022-12-05T19:46:29.698Z,20.80
2022-12-05T19:49:03.155Z,18.90
2022-12-05T19:51:31.251Z,21.60
2022-12-05T19:53:59.959Z,18.58
2022-12-05T19:56:28.271Z,20.12
2022-12-05T19:58:56.463Z,20.93
2022-12-05T20:01:25.754Z,25.00
2022-12-05T20:03:55.541Z,20.12
2022-12-05T20:06:23.081Z,21.37
2022-12-05T20:08:52.422Z,22.52
2022-12-05T20:11:21.949Z,21.58
2022-12-05T20:13:49.316Z,18.52
2022-12-05T20:16:18.568Z,21.15
2022-12-05T20:18:46.533Z,20.80
2022-12-05T20:21:15.360Z,19.40
2022-12-05T20:23:42.746Z,18.95
2022-12-05T20:26:15.349Z,19.33
2022-12-05T20:28:42.874Z,19.03
2022-12-05T20:31:15.314Z,16.83
2022-12-05T20:33:42.928Z,22.30
2022-12-05T20:36:12.342Z,20.27
2022-12-05T20:38:40.154Z,20.88
2022-12-05T20:41:09.155Z,17.90
2022-12-05T20:43:36.806Z,19.17
2022-12-05T20:46:05.642Z,18.23
2022-12-05T20:48:33.435Z,19.23
2022-12-05T20:51:08.340Z,18.85
2022-12-05T20:53:36.642Z,21.20
2022-12-05T20:56:12.104Z,17.48
2022-12-05T20:58:39.764Z,16.25
2022-12-05T21:01:10.154Z,16.58
2022-12-05T21:03:40.295Z,18.70
2022-12-05T21:06:18.466Z,20.45
2022-12-05T21:08:46.021Z,18.58
2022-12-05T21:11:13.811Z,14.73
2022-12-05T21:13:41.458Z,19.80
2022-12-05T21:16:11.399Z,21.85
2022-12-05T21:18:39.355Z,19.90
2022-12-05T21:21:08.614Z,24.50
2022-12-05T21:23:36.046Z,19.03
2022-12-05T21:26:05.306Z,19.48
2022-12-05T21:28:33.032Z,16.63
2022-12-05T21:31:12.668Z,21.75
2022-12-05T21:33:40.927Z,21.60
2022-12-05T21:36:08.490Z,22.13
2022-12-05T21:38:35.963Z,21.25
2022-12-05T21:41:04.303Z,18.80
2022-12-05T21:43:31.866Z,18.62
2022-12-05T21:45:59.220Z,20.98
2022-12-05T21:48:26.873Z,20.12
2022-12-05T21:50:54.352Z,17.85
2022-12-05T21:53:21.895Z,19.00
2022-12-05T21:55:58.987Z,19.65
2022-12-05T21:58:26.384Z,20.30
2022-12-05T22:00:54.107Z,18.93
2022-12-05T22:03:21.725Z,19.33
2022-12-05T22:05:49.697Z,18.70
2022-12-05T22:08:17.063Z,18.17
2022-12-05T22:10:45.195Z,17.77
2022-12-05T22:13:12.668Z,17.52
2022-12-05T22:15:40.179Z,18.77
2022-12-05T22:18:07.836Z,15.57
2022-12-05T22:20:35.223Z,15.23
2022-12-05T22:23:02.532Z,18.23
2022-12-05T22:25:30.129Z,17.58
2022-12-05T22:27:57.485Z,20.30
2022-12-05T22:30:24.839Z,20.67
2022-12-05T22:32:53.705Z,17.05
2022-12-05T22:35:21.063Z,19.05
2022-12-05T22:37:48.378Z,15.57
2022-12-05T22:40:16.073Z,18.15
2022-12-05T22:42:43.418Z,17.92
2022-12-05T22:45:10.879Z,23.23
2022-12-05T22:47:38.498Z,17.35
2022-12-05T22:50:06.385Z,17.83
2022-12-05T22:52:33.700Z,22.40
2022-12-05T22:55:01.350Z,19.92
2022-12-05T22:57:28.834Z,16.70
2022-12-05T22:59:56.289Z,17.33
2022-12-05T23:02:24.023Z,19.80
2022-12-05T23:04:51.369Z,19.77
2022-12-05T23:07:18.711Z,20.48
2022-12-05T23:09:46.317Z,21.12
2022-12-05T23:12:13.691Z,17.75
2022-12-05T23:14:41.083Z,22.17
2022-12-05T23:17:08.791Z,22.15
2022-12-05T23:19:36.103Z,18.58
2022-12-05T23:22:03.417Z,21.50
2022-12-05T23:24:31.007Z,17.13
2022-12-05T23:26:58.330Z,21.83
2022-12-05T23:29:25.786Z,18.10
2022-12-05T23:31:53.431Z,18.30
2022-12-05T23:34:20.756Z,19.17
2022-12-05T23:36:48.081Z,18.50
2022-12-05T23:39:15.676Z,17.57
2022-12-05T23:41:44.125Z,19.53
2022-12-05T23:44:11.482Z,22.70
2022-12-05T23:46:39.362Z,16.42
2022-12-05T23:49:06.734Z,18.65
2022-12-05T23:51:34.098Z,20.17
2022-12-05T23:54:02.412Z,18.50
2022-12-05T23:56:31.169Z,20.40
2022-12-05T23:58:58.565Z,16.83
